Soaring Guidance
Issued by NWS Reno, NV

Home | Current Version | Previous Version | Text Only | Print | Product List | Glossary On
Versions: 1 2 3 4 5 6 7 8 9 10 11 12 13
000
UXUS97 KREV 011456
SRGREV

SOARING FORECAST
NATIONAL WEATHER SERVICE - RENO NV
700 AM PST WED MAR 1 2017

THIS SOARING FORECAST IS FOR THE EASTERN SIERRA AND WESTERN NEVADA
WITH SPECIFIC INDICES FOR THE GREATER RENO AREA.

THIS FORECAST IS PREPARED DAILY BY 700 AM AND IS NOT UPDATED.

FOR CURRENT FLIGHT CONDITIONS...FORECASTS...AND ADVISORIES...ACCESS
YOUR LOCAL BRIEFING OUTLET OR FLIGHT SERVICE STATION.

*******************************************************************
FORECASTED LOCAL INDICES FOR RENO:        TODAY     YESTERDAY
FORECASTED MAX TEMP AT RENO (DEG F).....     50          45
FORECASTED TRIGGER TEMPERATURE (DEG F)..     42          31
   EXCEEDED YESTERDAY BY -155 AM PST
FORECASTED MAXIMUM ALTITUDE (FT MSL)....  10100       13500
FORECASTED SOARING INDEX (FPM)..........    333         705
FORECASTED K-INDEX.........VALID 18Z....     -9           4
FORECASTED K-INDEX.........VALID 00Z....     -7           7
FORECASTED LIFTED INDEX....VALID 18Z....      6          10
FORECASTED LIFTED INDEX....VALID 00Z....      5           8

AFTERNOON WINDS ALOFT FORECAST
MSL (FT) WIND/TEMP
9000  9900/-01
10000 9903/-02
12000 3410/-06
14000 3213/-11
16000 3116/-16
18000 3125/-21
24000 3131/-33
30000 3136/-49
34000 3040/-58
39000 2946/-66

SLIDE MOUNTAIN DATA:
     DATE       TIME     TEMP  DEWPT   RH         WIND (MPH)
                        (F)   (F)           | DIR  SPEED GUST
2017-03-01    05:50      18    16     90    | 358   13   15
2017-03-01    05:30      18    17     91    | 359   13   15
2017-03-01    05:20      18    17     92    | 358   13   14
2017-03-01    05:00      18    17     92    | 358   13   14

RENO TAF FORECAST:
KRNO 011120Z 0112/0212 VRB03KT P6SM SKC

CARSON CITY TAF FORECAST:
KCXP 011120Z 0112/0212 VRB03KT P6SM SKC

OUTLOOK FOR THE RENO-CARSON CITY-MINDEN AREA:
.THURSDAY...SUNNY. HIGHS 54 TO 59. LIGHT WINDS.


USA.gov is the U.S. government's official web portal to all federal, state and local government web resources and services.